Time;durP1;ratioP1;P1;durP2;ratioP2;P2;SDS_P1;SDS_P2;PMS_P1;PMS_P2;Temp;Humidity;BMP_temperature;BMP_pressure;BME280_temperature;BME280_humidity;BME280_pressure;Samples;Min_cycle;Max_cycle;Signal;HPM_P1;HPM_P2
2024/03/26 00:00:20;;;;;;;41.70;25.80;;;;;;;1.07;83.09;100400.80;108891;1256;65480;-65
2024/03/26 00:03:07;;;;;;;40.40;25.20;;;;;;;1.07;83.20;100400.64;107807;1256;74021;-66
2024/03/26 00:05:34;;;;;;;42.30;25.80;;;;;;;1.04;83.18;100397.89;108837;1256;138881;-66
2024/03/26 00:08:01;;;;;;;41.00;26.70;;;;;;;1.05;83.14;100396.89;108617;1256;61142;-66
2024/03/26 00:10:28;;;;;;;43.60;25.80;;;;;;;1.03;82.92;100396.45;108619;1256;139067;-66
2024/03/26 00:12:54;;;;;;;43.50;27.20;;;;;;;1.00;82.94;100394.92;108817;1256;63713;-66
2024/03/26 00:15:21;;;;;;;47.70;29.00;;;;;;;0.97;82.90;100387.67;104958;1257;71450;-65
2024/03/26 00:17:47;;;;;;;44.20;26.80;;;;;;;0.95;82.76;100390.66;104717;1259;138514;-66
2024/03/26 00:20:14;;;;;;;44.90;27.30;;;;;;;0.94;82.79;100395.44;104420;1257;62055;-64
2024/03/26 00:22:40;;;;;;;47.60;28.80;;;;;;;0.94;83.01;100393.53;104418;1260;138759;-64
2024/03/26 00:25:08;;;;;;;45.30;28.00;;;;;;;0.93;82.99;100392.59;104573;1259;67775;-64
2024/03/26 00:27:34;;;;;;;46.10;28.70;;;;;;;0.91;82.97;100390.21;108851;1256;71566;-64
2024/03/26 00:30:01;;;;;;;43.20;26.80;;;;;;;0.88;83.08;100388.70;108849;1256;138678;-64
2024/03/26 00:32:27;;;;;;;43.80;27.00;;;;;;;0.87;83.03;100384.66;109055;1255;59971;-62
2024/03/26 00:34:54;;;;;;;40.00;25.80;;;;;;;0.86;83.33;100383.58;108889;1256;139313;-64
2024/03/26 00:37:20;;;;;;;42.30;24.80;;;;;;;0.87;83.42;100387.08;108791;1256;65965;-64
2024/03/26 00:39:47;;;;;;;41.40;26.00;;;;;;;0.88;83.44;100391.98;108682;1257;140761;-64
2024/03/26 00:42:13;;;;;;;43.00;25.90;;;;;;;0.89;83.61;100395.64;108763;1255;59831;-64
2024/03/26 00:44:40;;;;;;;41.90;27.70;;;;;;;0.89;83.50;100399.61;108778;1256;60044;-64
2024/03/26 00:47:06;;;;;;;42.50;26.00;;;;;;;0.88;83.42;100402.17;108881;1256;139079;-61
2024/03/26 00:49:33;;;;;;;43.10;27.40;;;;;;;0.88;83.43;100402.30;108670;1257;64508;-61
2024/03/26 00:52:00;;;;;;;39.50;26.70;;;;;;;0.87;83.53;100407.66;104687;1262;138831;-61
2024/03/26 00:54:26;;;;;;;41.70;26.20;;;;;;;0.87;83.22;100412.80;104740;1260;61905;-62
2024/03/26 00:56:53;;;;;;;43.90;26.00;;;;;;;0.84;83.45;100407.96;104727;1256;63755;-61
2024/03/26 00:59:19;;;;;;;41.40;27.00;;;;;;;0.81;83.39;100410.92;104652;1258;138694;-61
2024/03/26 01:01:46;;;;;;;49.70;26.90;;;;;;;0.79;83.47;100410.44;104658;1256;65120;-62
2024/03/26 01:04:12;;;;;;;40.20;26.70;;;;;;;0.77;83.64;100411.41;104842;1256;138908;-61
2024/03/26 01:06:40;;;;;;;47.30;26.80;;;;;;;0.76;83.59;100411.83;104794;1259;62613;-61
2024/03/26 01:09:07;;;;;;;42.50;28.30;;;;;;;0.74;83.56;100412.91;104772;1260;62439;-61
2024/03/26 01:11:34;;;;;;;45.90;25.90;;;;;;;0.71;83.64;100410.33;104880;1259;139990;-61
2024/03/26 01:14:00;;;;;;;39.40;25.10;;;;;;;0.70;83.46;100412.30;104887;1259;66656;-61
2024/03/26 01:16:27;;;;;;;45.30;25.90;;;;;;;0.68;83.55;100411.02;104767;1259;139418;-67
2024/03/26 01:18:54;;;;;;;39.10;23.90;;;;;;;0.67;83.61;100410.77;104789;1257;62199;-63
2024/03/26 01:21:20;;;;;;;39.90;22.50;;;;;;;0.67;83.60;100408.86;104404;1263;62164;-63
2024/03/26 01:23:47;;;;;;;38.40;24.00;;;;;;;0.65;83.76;100410.82;104507;1257;139231;-61
2024/03/26 01:26:13;;;;;;;37.70;23.50;;;;;;;0.64;83.72;100417.17;104446;1260;66925;-62
2024/03/26 01:28:40;;;;;;;37.30;22.30;;;;;;;0.64;83.82;100417.34;104257;1256;139114;-61
2024/03/26 01:31:06;;;;;;;37.50;23.10;;;;;;;0.64;83.89;100422.52;104877;1256;62060;-62
2024/03/26 01:33:33;;;;;;;39.60;21.80;;;;;;;0.64;83.86;100425.60;104891;1256;60636;-62
2024/03/26 01:35:59;;;;;;;37.60;22.40;;;;;;;0.64;83.83;100429.77;104682;1259;138617;-62
2024/03/26 01:38:26;;;;;;;41.30;23.00;;;;;;;0.64;83.90;100428.88;104598;1258;68341;-62
2024/03/26 01:40:53;;;;;;;34.30;20.80;;;;;;;0.63;83.96;100429.36;104652;1256;138686;-62
2024/03/26 01:43:19;;;;;;;30.70;19.70;;;;;;;0.62;83.91;100430.33;104735;1257;62057;-62
2024/03/26 01:45:46;;;;;;;31.70;20.10;;;;;;;0.60;83.95;100432.11;104679;1257;139004;-62
2024/03/26 01:48:13;;;;;;;31.50;20.90;;;;;;;0.58;83.80;100432.87;104846;1256;75101;-62
2024/03/26 01:50:39;;;;;;;34.80;20.40;;;;;;;0.57;83.95;100431.98;104889;1256;67649;-61
2024/03/26 01:53:06;;;;;;;33.70;21.30;;;;;;;0.56;83.84;100430.73;105513;1257;139477;-62
2024/03/26 01:55:33;;;;;;;32.10;20.50;;;;;;;0.55;83.95;100433.75;104651;1261;61999;-63
2024/03/26 01:58:01;;;;;;;34.50;20.80;;;;;;;0.54;83.79;100426.59;104787;1262;138892;-62
2024/03/26 02:00:29;;;;;;;30.90;20.50;;;;;;;0.53;83.76;100431.04;104744;1259;75770;-62
2024/03/26 02:02:56;;;;;;;32.50;20.70;;;;;;;0.51;83.84;100435.75;104821;1256;67346;-62
2024/03/26 02:05:23;;;;;;;36.30;22.30;;;;;;;0.48;83.62;100436.45;104699;1257;138835;-63
2024/03/26 02:07:49;;;;;;;34.80;21.00;;;;;;;0.46;83.74;100440.98;104970;1258;62170;-62
2024/03/26 02:10:16;;;;;;;33.80;21.70;;;;;;;0.42;83.77;100440.70;104724;1262;139174;-62
2024/03/26 02:12:43;;;;;;;35.20;21.40;;;;;;;0.38;83.71;100442.23;104456;1257;76545;-62
2024/03/26 02:15:09;;;;;;;37.30;20.80;;;;;;;0.36;83.80;100443.98;104722;1256;67454;-66
2024/03/26 02:17:36;;;;;;;31.00;21.20;;;;;;;0.34;83.87;100446.09;104567;1260;138641;-66
2024/03/26 02:20:04;;;;;;;38.30;21.20;;;;;;;0.31;83.68;100447.66;104646;1260;62055;-66
2024/03/26 02:22:30;;;;;;;33.50;21.80;;;;;;;0.28;83.71;100453.65;104522;1256;138895;-64
2024/03/26 02:24:57;;;;;;;36.40;22.40;;;;;;;0.25;83.59;100455.23;104616;1257;74787;-64
2024/03/26 02:27:24;;;;;;;40.50;23.10;;;;;;;0.23;83.59;100454.23;104759;1262;65907;-64
2024/03/26 02:29:50;;;;;;;39.80;22.80;;;;;;;0.19;83.57;100451.93;104700;1257;138613;-64
2024/03/26 02:32:17;;;;;;;39.10;22.60;;;;;;;0.16;83.56;100453.29;104840;1260;62062;-65
2024/03/26 02:34:44;;;;;;;38.50;23.60;;;;;;;0.14;83.50;100451.28;104505;1256;138899;-65
2024/03/26 02:37:11;;;;;;;35.80;23.10;;;;;;;0.13;83.75;100448.44;104495;1256;76012;-64
2024/03/26 02:39:37;;;;;;;34.70;22.30;;;;;;;0.10;83.47;100449.84;104586;1260;67183;-65
2024/03/26 02:42:04;;;;;;;36.60;22.40;;;;;;;0.07;83.48;100442.55;104553;1257;138406;-63
2024/03/26 02:44:30;;;;;;;36.30;22.50;;;;;;;0.06;83.71;100447.63;104635;1262;60871;-64
2024/03/26 02:46:58;;;;;;;35.90;22.50;;;;;;;0.05;83.77;100449.65;104744;1256;138619;-64
2024/03/26 02:49:25;;;;;;;35.70;22.90;;;;;;;0.04;83.79;100452.89;104792;1260;74406;-65
2024/03/26 02:51:52;;;;;;;36.00;21.80;;;;;;;0.03;84.01;100458.16;104339;1259;139136;-65
2024/03/26 02:54:19;;;;;;;34.90;22.20;;;;;;;0.02;83.84;100460.17;104625;1256;73682;-65
2024/03/26 02:56:46;;;;;;;36.20;22.80;;;;;;;-0.01;83.74;100457.27;104648;1258;62179;-65
2024/03/26 02:59:12;;;;;;;32.90;21.10;;;;;;;-0.02;83.81;100463.38;104706;1256;139082;-65
2024/03/26 03:01:39;;;;;;;34.90;21.70;;;;;;;-0.04;83.97;100464.84;104813;1257;62752;-64
2024/03/26 03:04:05;;;;;;;30.80;21.00;;;;;;;-0.04;83.91;100464.34;104602;1256;139647;-64
2024/03/26 03:06:32;;;;;;;34.20;21.10;;;;;;;-0.05;84.10;100465.11;104643;1257;73175;-64
2024/03/26 03:08:58;;;;;;;30.40;19.50;;;;;;;-0.06;84.01;100467.97;104641;1259;62036;-65
2024/03/26 03:11:25;;;;;;;32.60;20.80;;;;;;;-0.07;84.14;100467.20;104586;1256;139096;-64
2024/03/26 03:13:52;;;;;;;33.60;21.60;;;;;;;-0.06;84.03;100467.10;104646;1257;73680;-65
2024/03/26 03:16:18;;;;;;;33.60;22.40;;;;;;;-0.07;84.09;100464.66;104718;1259;139061;-64
2024/03/26 03:18:45;;;;;;;38.20;24.00;;;;;;;-0.07;83.92;100468.80;104737;1257;71180;-64
2024/03/26 03:21:12;;;;;;;36.70;22.40;;;;;;;-0.08;84.11;100467.16;104758;1257;62166;-61
2024/03/26 03:23:38;;;;;;;34.60;22.50;;;;;;;-0.12;84.09;100466.21;104626;1256;140562;-60
2024/03/26 03:26:05;;;;;;;32.20;21.90;;;;;;;-0.16;84.08;100467.71;104423;1256;75013;-61
2024/03/26 03:28:32;;;;;;;37.10;21.90;;;;;;;-0.15;84.01;100471.53;104614;1260;139236;-62
2024/03/26 03:30:58;;;;;;;32.50;21.80;;;;;;;-0.14;84.22;100472.84;104801;1256;74665;-62
2024/03/26 03:33:25;;;;;;;33.10;21.20;;;;;;;-0.14;84.25;100478.19;104798;1260;62056;-62
2024/03/26 03:35:51;;;;;;;34.30;21.60;;;;;;;-0.14;84.21;100477.64;104798;1256;138997;-63
2024/03/26 03:38:18;;;;;;;36.60;20.60;;;;;;;-0.14;84.36;100479.02;104704;1256;76084;-62
2024/03/26 03:40:45;;;;;;;36.10;21.70;;;;;;;-0.15;84.41;100476.55;105288;1260;138813;-62
2024/03/26 03:43:11;;;;;;;31.80;19.50;;;;;;;-0.15;84.30;100478.80;104806;1259;73638;-61
2024/03/26 03:45:38;;;;;;;31.10;19.50;;;;;;;-0.13;84.33;100477.35;104638;1257;62055;-61
2024/03/26 03:48:05;;;;;;;32.90;20.50;;;;;;;-0.13;84.47;100480.96;104624;1256;138784;-61
2024/03/26 03:50:32;;;;;;;29.50;20.30;;;;;;;-0.14;84.46;100482.48;108840;1256;75314;-61
2024/03/26 03:52:58;;;;;;;30.80;19.70;;;;;;;-0.13;84.58;100475.30;108880;1256;138965;-62
2024/03/26 03:55:25;;;;;;;31.70;20.00;;;;;;;-0.11;84.41;100478.15;108953;1255;71898;-62
2024/03/26 03:57:51;;;;;;;30.20;19.20;;;;;;;-0.12;84.34;100475.48;108701;1256;139955;-62
2024/03/26 04:00:18;;;;;;;26.40;19.10;;;;;;;-0.13;84.29;100473.38;108986;1256;59825;-62
2024/03/26 04:02:45;;;;;;;30.90;19.20;;;;;;;-0.14;84.33;100474.87;109002;1256;74130;-61
2024/03/26 04:05:11;;;;;;;28.50;19.70;;;;;;;-0.13;84.26;100476.11;108710;1256;140110;-62
2024/03/26 04:07:38;;;;;;;28.50;19.10;;;;;;;-0.15;84.11;100478.30;108786;1256;72437;-62
2024/03/26 04:10:07;;;;;;;27.70;18.60;;;;;;;-0.17;83.85;100479.52;108655;1256;140039;-62
2024/03/26 04:12:33;;;;;;;29.40;18.90;;;;;;;-0.18;83.84;100479.65;108777;1256;60616;-65
2024/03/26 04:15:00;;;;;;;30.00;18.60;;;;;;;-0.21;83.83;100480.30;108941;1256;74301;-64
2024/03/26 04:17:27;;;;;;;26.00;18.10;;;;;;;-0.27;83.73;100482.89;108954;1256;140122;-64
2024/03/26 04:19:53;;;;;;;28.50;19.00;;;;;;;-0.28;83.80;100486.40;109052;1256;72755;-64
2024/03/26 04:22:20;;;;;;;29.80;18.90;;;;;;;-0.23;84.01;100488.46;108785;1256;139063;-64
2024/03/26 04:24:47;;;;;;;26.80;17.70;;;;;;;-0.21;83.81;100486.91;108950;1255;60154;-64
2024/03/26 04:27:13;;;;;;;27.20;18.50;;;;;;;-0.21;83.91;100489.82;108807;1256;75577;-65
2024/03/26 04:29:40;;;;;;;28.70;18.40;;;;;;;-0.23;83.77;100490.05;108679;1256;140067;-65
2024/03/26 04:32:06;;;;;;;31.80;19.80;;;;;;;-0.24;83.68;100487.18;108696;1256;72888;-65
2024/03/26 04:34:33;;;;;;;29.00;19.20;;;;;;;-0.23;83.70;100488.63;108753;1256;140008;-65
2024/03/26 04:37:01;;;;;;;28.20;18.60;;;;;;;-0.21;83.78;100492.23;108733;1256;60673;-65
2024/03/26 04:39:28;;;;;;;24.90;16.90;;;;;;;-0.18;83.88;100492.77;108592;1256;76378;-66
2024/03/26 04:41:55;;;;;;;29.70;18.30;;;;;;;-0.14;83.82;100493.34;105519;1259;138952;-63
2024/03/26 04:44:22;;;;;;;28.10;17.40;;;;;;;-0.03;84.16;100494.23;104783;1257;73190;-62
2024/03/26 04:46:48;;;;;;;24.20;16.50;;;;;;;0.38;85.44;100497.47;104771;1259;138994;-61
2024/03/26 04:49:15;;;;;;;26.10;17.70;;;;;;;0.96;86.01;100495.73;104850;1256;62215;-61
2024/03/26 04:51:41;;;;;;;29.50;18.20;;;;;;;1.61;86.32;100490.33;104624;1256;76097;-60
2024/03/26 04:54:08;;;;;;;30.30;20.40;;;;;;;2.28;86.30;100490.05;108490;1256;138907;-61
2024/03/26 04:56:34;;;;;;;30.70;20.90;;;;;;;2.81;85.51;100490.39;108752;1256;70711;-61
2024/03/26 04:59:01;;;;;;;31.00;21.40;;;;;;;2.96;83.81;100489.45;108518;1256;138885;-61
2024/03/26 05:01:28;;;;;;;29.80;20.80;;;;;;;2.89;82.38;100489.61;108806;1259;60250;-62
2024/03/26 05:03:55;;;;;;;30.40;21.10;;;;;;;2.73;81.32;100487.21;108727;1256;139214;-62
2024/03/26 05:06:21;;;;;;;29.10;19.40;;;;;;;2.57;80.98;100485.34;108773;1256;66226;-62
2024/03/26 05:08:48;;;;;;;25.00;18.10;;;;;;;2.45;80.89;100484.54;108915;1256;71757;-62
2024/03/26 05:11:15;;;;;;;26.90;19.40;;;;;;;2.38;80.99;100487.11;108824;1256;138749;-62
2024/03/26 05:13:41;;;;;;;34.20;20.00;;;;;;;2.38;81.10;100488.47;108993;1256;60795;-62
2024/03/26 05:16:08;;;;;;;42.20;23.00;;;;;;;2.34;80.99;100491.95;108837;1256;138748;-62
2024/03/26 05:18:35;;;;;;;41.50;24.70;;;;;;;2.30;80.95;100493.45;108808;1256;64271;-62
2024/03/26 05:21:01;;;;;;;50.20;30.70;;;;;;;2.29;81.02;100493.40;108738;1256;74023;-63
2024/03/26 05:23:28;;;;;;;62.40;33.20;;;;;;;2.30;81.13;100495.69;108664;1255;138256;-62
2024/03/26 05:25:55;;;;;;;68.20;34.50;;;;;;;2.31;81.11;100496.77;107914;1256;61127;-62
2024/03/26 05:28:22;;;;;;;83.40;37.00;;;;;;;2.29;80.99;100499.61;104605;1256;138320;-63
2024/03/26 05:30:48;;;;;;;70.50;37.80;;;;;;;2.31;81.19;100499.05;104983;1257;62170;-63
2024/03/26 05:33:15;;;;;;;86.90;38.70;;;;;;;2.31;81.09;100494.35;104811;1256;71227;-63
2024/03/26 05:35:42;;;;;;;83.20;38.40;;;;;;;2.37;81.22;100501.94;104591;1257;138808;-63
2024/03/26 05:38:09;;;;;;;77.30;39.60;;;;;;;2.39;81.16;100505.33;104698;1256;62054;-62
2024/03/26 05:40:36;;;;;;;82.70;41.70;;;;;;;2.40;81.18;100503.29;104725;1256;139157;-64
2024/03/26 05:43:02;;;;;;;88.60;43.80;;;;;;;2.43;81.11;100504.02;104721;1259;66754;-62
2024/03/26 05:45:29;;;;;;;79.40;41.70;;;;;;;2.48;81.32;100507.06;104814;1256;73536;-62
2024/03/26 05:47:56;;;;;;;84.30;43.10;;;;;;;2.56;81.32;100505.39;104756;1259;139747;-64
2024/03/26 05:50:22;;;;;;;82.80;42.70;;;;;;;2.62;81.24;100505.71;104918;1256;62065;-64
2024/03/26 05:52:49;;;;;;;88.70;41.80;;;;;;;2.65;81.05;100504.30;104793;1256;138047;-63
2024/03/26 05:55:15;;;;;;;73.10;39.30;;;;;;;2.68;80.94;100514.88;104805;1256;64520;-62
2024/03/26 05:57:42;;;;;;;84.90;36.20;;;;;;;2.71;80.86;100516.41;104600;1256;73560;-62
2024/03/26 06:00:10;;;;;;;89.20;36.60;;;;;;;2.76;80.93;100512.34;104637;1258;62035;-62
2024/03/26 06:02:37;;;;;;;109.30;34.70;;;;;;;2.80;80.55;100511.49;108618;1257;60103;-63
2024/03/26 06:05:03;;;;;;;65.70;35.90;;;;;;;2.83;80.62;100518.24;108559;1256;139595;-63
2024/03/26 06:07:30;;;;;;;60.00;35.20;;;;;;;2.93;80.48;100514.92;108870;1260;66063;-62
2024/03/26 06:09:57;;;;;;;61.50;36.80;;;;;;;3.04;80.41;100514.29;108720;1257;138967;-61
2024/03/26 06:12:24;;;;;;;62.10;37.50;;;;;;;3.13;80.45;100514.73;108795;1257;59988;-66
2024/03/26 06:14:50;;;;;;;62.90;39.70;;;;;;;3.21;80.02;100513.77;108819;1257;60007;-62
2024/03/26 06:17:18;;;;;;;61.00;37.70;;;;;;;3.25;79.66;100509.48;108765;1256;139286;-62
2024/03/26 06:19:44;;;;;;;63.00;36.20;;;;;;;3.30;79.63;100508.31;108883;1256;66031;-62
2024/03/26 06:22:11;;;;;;;65.00;35.30;;;;;;;3.36;79.53;100511.23;108888;1256;138330;-62
2024/03/26 06:24:37;;;;;;;77.30;34.70;;;;;;;3.39;79.38;100515.86;108997;1255;60007;-62
2024/03/26 06:27:04;;;;;;;66.30;35.40;;;;;;;3.38;79.18;100516.68;108813;1256;60817;-64
2024/03/26 06:29:31;;;;;;;75.40;34.20;;;;;;;3.44;79.21;100522.74;108647;1256;138100;-63
2024/03/26 06:31:58;;;;;;;56.60;34.30;;;;;;;3.57;79.28;100521.28;106683;1259;66201;-63
2024/03/26 06:34:24;;;;;;;64.40;36.10;;;;;;;3.71;79.55;100522.13;104657;1256;139503;-63
2024/03/26 06:36:51;;;;;;;57.70;34.60;;;;;;;3.88;79.38;100520.34;104791;1256;62135;-62
2024/03/26 06:39:18;;;;;;;57.70;33.70;;;;;;;3.99;79.30;100518.27;104827;1259;62111;-61
2024/03/26 06:41:45;;;;;;;67.60;34.80;;;;;;;4.03;79.07;100517.23;104731;1257;138579;-60
2024/03/26 06:44:11;;;;;;;67.40;33.40;;;;;;;4.03;78.69;100518.80;104802;1260;62275;-61
2024/03/26 06:46:39;;;;;;;67.50;36.80;;;;;;;4.01;78.72;100519.27;104740;1259;138101;-61
2024/03/26 06:49:05;;;;;;;60.90;34.10;;;;;;;4.09;78.77;100524.46;104846;1256;62106;-61
2024/03/26 06:51:32;;;;;;;54.90;37.40;;;;;;;4.23;79.07;100525.67;104697;1256;62154;-61
2024/03/26 06:53:59;;;;;;;68.40;40.80;;;;;;;4.39;79.01;100522.73;104592;1256;138513;-61
2024/03/26 06:56:25;;;;;;;69.60;38.40;;;;;;;4.53;78.92;100526.33;104915;1260;67119;-61
2024/03/26 06:58:52;;;;;;;81.20;41.60;;;;;;;4.69;78.97;100523.23;104806;1256;138559;-61
2024/03/26 07:01:19;;;;;;;81.00;45.10;;;;;;;4.81;78.70;100516.46;104662;1259;62212;-61
2024/03/26 07:03:45;;;;;;;81.70;44.40;;;;;;;4.94;78.55;100511.46;104649;1258;138416;-61
2024/03/26 07:06:12;;;;;;;71.50;44.10;;;;;;;5.02;78.24;100512.67;108810;1256;76129;-62
2024/03/26 07:08:38;;;;;;;71.30;42.90;;;;;;;5.16;78.38;100518.34;108985;1256;64149;-62
2024/03/26 07:11:05;;;;;;;68.50;41.10;;;;;;;5.32;78.12;100519.87;104942;1262;138613;-61
2024/03/26 07:13:33;;;;;;;75.80;42.40;;;;;;;5.42;77.90;100524.67;104627;1262;61934;-61
2024/03/26 07:15:59;;;;;;;75.80;43.50;;;;;;;5.45;77.61;100524.77;108791;1257;139638;-61
2024/03/26 07:18:26;;;;;;;72.30;44.20;;;;;;;5.47;77.61;100521.22;108936;1257;75973;-61
2024/03/26 07:20:52;;;;;;;71.40;44.50;;;;;;;5.62;77.70;100517.33;108920;1257;67737;-61
2024/03/26 07:23:19;;;;;;;83.40;44.00;;;;;;;5.74;77.44;100516.73;108780;1257;139540;-61
2024/03/26 07:25:46;;;;;;;71.20;44.90;;;;;;;5.83;77.29;100512.78;108933;1257;59741;-61
2024/03/26 07:28:13;;;;;;;74.30;43.00;;;;;;;5.91;77.33;100515.69;108822;1257;138249;-61
2024/03/26 07:30:39;;;;;;;84.50;40.70;;;;;;;6.00;76.95;100512.61;108258;1259;75329;-63
2024/03/26 07:33:06;;;;;;;72.40;39.20;;;;;;;6.01;77.09;100515.61;104755;1261;64895;-62
2024/03/26 07:35:33;;;;;;;66.10;37.50;;;;;;;6.09;77.01;100515.38;104780;1262;139259;-62
2024/03/26 07:38:00;;;;;;;56.40;36.60;;;;;;;6.14;76.92;100513.67;105059;1261;62357;-62
2024/03/26 07:40:27;;;;;;;64.20;36.80;;;;;;;6.23;76.94;100516.81;108794;1258;139008;-63
2024/03/26 07:42:57;;;;;;;58.60;36.40;;;;;;;6.30;76.87;100518.98;108898;1257;73980;-63
2024/03/26 07:45:23;;;;;;;66.00;38.30;;;;;;;6.39;76.99;100520.37;108934;1258;65543;-62
2024/03/26 07:47:50;;;;;;;61.60;37.90;;;;;;;6.55;77.05;100520.27;108830;1258;137898;-63
2024/03/26 07:50:17;;;;;;;60.70;37.70;;;;;;;6.74;77.27;100522.39;108922;1257;59812;-62
2024/03/26 07:52:43;;;;;;;93.40;41.90;;;;;;;6.91;77.04;100524.55;108882;1258;138237;-62
2024/03/26 07:55:10;;;;;;;67.10;42.20;;;;;;;6.98;76.48;100522.73;108922;1259;75885;-62
2024/03/26 07:57:37;;;;;;;66.30;36.80;;;;;;;7.13;76.54;100522.04;108973;1257;67573;-62
2024/03/26 08:00:10;;;;;;;61.70;34.10;;;;;;;7.24;76.33;100524.52;108751;1257;138774;-62
2024/03/26 08:02:41;;;;;;;58.00;32.80;;;;;;;7.17;75.62;100524.64;104856;1259;62057;-62
2024/03/26 08:05:07;;;;;;;56.40;32.70;;;;;;;7.08;75.48;100527.45;104611;1259;139080;-62
2024/03/26 08:07:34;;;;;;;47.20;33.00;;;;;;;7.17;75.95;100524.09;104867;1257;75341;-61
2024/03/26 08:10:01;;;;;;;55.80;32.00;;;;;;;7.46;76.42;100524.02;104744;1260;138062;-62
2024/03/26 08:12:27;;;;;;;55.50;33.70;;;;;;;7.72;76.43;100525.79;104953;1260;71833;-61
2024/03/26 08:14:54;;;;;;;59.70;33.10;;;;;;;7.78;75.76;100524.56;104885;1262;61947;-61
2024/03/26 08:17:20;;;;;;;54.00;32.90;;;;;;;7.73;75.54;100520.91;104890;1259;138184;-62
2024/03/26 08:19:47;;;;;;;55.00;33.50;;;;;;;7.83;75.72;100524.38;104979;1257;76423;-61
2024/03/26 08:22:14;;;;;;;54.60;35.30;;;;;;;7.98;75.61;100526.63;104833;1261;138974;-62
2024/03/26 08:24:40;;;;;;;56.10;32.90;;;;;;;7.95;75.19;100522.85;104850;1258;73702;-62
2024/03/26 08:27:07;;;;;;;59.70;32.00;;;;;;;7.83;74.78;100520.35;104946;1257;62164;-61
2024/03/26 08:29:33;;;;;;;51.70;33.60;;;;;;;7.76;74.96;100524.67;104676;1258;139178;-61
2024/03/26 08:32:00;;;;;;;50.70;34.10;;;;;;;7.86;75.57;100527.08;104800;1262;74974;-61
2024/03/26 08:34:27;;;;;;;55.70;35.70;;;;;;;8.08;75.82;100532.19;104666;1260;139101;-61
2024/03/26 08:36:54;;;;;;;54.90;35.00;;;;;;;8.18;75.09;100535.61;104679;1262;236891;-61
2024/03/26 08:39:20;;;;;;;52.80;35.10;;;;;;;8.05;74.91;100536.77;104797;1259;62064;-61
2024/03/26 08:41:47;;;;;;;52.60;35.40;;;;;;;8.13;75.16;100534.95;104708;1257;138608;-61
2024/03/26 08:44:13;;;;;;;53.40;35.90;;;;;;;8.30;75.58;100530.58;104684;1260;76201;-61
2024/03/26 08:46:40;;;;;;;52.00;35.90;;;;;;;8.58;75.81;100526.02;104748;1256;138329;-62
2024/03/26 08:49:06;;;;;;;53.30;36.30;;;;;;;8.77;75.46;100524.29;104799;1256;71153;-61
2024/03/26 08:51:33;;;;;;;47.80;33.90;;;;;;;8.85;75.10;100525.92;104858;1257;62094;-61
2024/03/26 08:54:00;;;;;;;49.10;34.30;;;;;;;8.90;75.01;100529.57;104733;1261;137970;-61
2024/03/26 08:56:27;;;;;;;46.20;33.00;;;;;;;8.86;74.53;100532.42;104870;1256;75003;-62
2024/03/26 08:58:54;;;;;;;47.20;32.80;;;;;;;8.77;74.38;100530.61;104784;1261;138229;-61
2024/03/26 09:01:20;;;;;;;48.30;33.70;;;;;;;8.76;74.37;100522.86;108978;1256;73344;-62
2024/03/26 09:03:47;;;;;;;41.90;31.70;;;;;;;8.81;74.71;100527.75;108883;1256;138454;-62
2024/03/26 09:06:14;;;;;;;41.30;30.60;;;;;;;9.03;74.89;100530.64;109008;1259;60344;-62
2024/03/26 09:08:40;;;;;;;42.70;32.30;;;;;;;9.25;75.01;100529.12;109011;1259;74737;-62
2024/03/26 09:11:07;;;;;;;39.60;30.60;;;;;;;9.37;74.67;100522.79;108785;1259;138086;-62
2024/03/26 09:13:40;;;;;;;42.20;31.20;;;;;;;9.40;74.43;100525.66;108886;1261;71781;-63
2024/03/26 09:16:07;;;;;;;38.80;30.60;;;;;;;9.37;74.37;100520.32;108805;1257;139193;-62
2024/03/26 09:18:34;;;;;;;41.80;29.10;;;;;;;9.30;74.14;100514.19;108838;1256;60119;-62
2024/03/26 09:21:01;;;;;;;37.50;27.90;;;;;;;9.21;74.05;100509.74;106389;1261;74302;-62
2024/03/26 09:23:28;;;;;;;38.20;28.70;;;;;;;9.13;74.20;100507.80;104578;1262;138745;-61
2024/03/26 09:25:54;;;;;;;36.60;28.30;;;;;;;9.09;74.27;100508.93;104791;1259;73343;-61
2024/03/26 09:28:21;;;;;;;41.00;29.70;;;;;;;9.05;74.48;100504.09;104653;1256;138491;-61
2024/03/26 09:30:51;;;;;;;37.20;28.10;;;;;;;9.12;74.79;100501.30;104918;1260;62056;-61
2024/03/26 09:33:18;;;;;;;35.70;27.50;;;;;;;9.10;74.74;100497.20;108952;1256;74922;-62
2024/03/26 09:35:44;;;;;;;35.00;27.40;;;;;;;8.97;74.62;100497.55;108838;1256;138014;-61
2024/03/26 09:38:11;;;;;;;34.20;26.70;;;;;;;8.80;74.68;100494.64;109044;1256;72408;-61
2024/03/26 09:40:38;;;;;;;34.80;26.50;;;;;;;8.64;74.93;100491.21;106106;1260;138015;-62
2024/03/26 09:43:08;;;;;;;34.50;26.30;;;;;;;8.50;75.09;100486.27;105035;1262;62007;-62
2024/03/26 09:45:34;;;;;;;32.50;24.60;;;;;;;8.42;75.38;100486.54;104848;1256;74718;-61
2024/03/26 09:48:01;;;;;;;28.90;22.50;;;;;;;8.38;75.74;100487.12;104805;1262;139052;-61
2024/03/26 09:50:28;;;;;;;29.90;22.20;;;;;;;8.41;76.30;100480.41;104947;1261;72800;-62
2024/03/26 09:52:56;;;;;;;27.20;20.90;;;;;;;8.52;76.44;100478.27;104823;1256;138986;-62
2024/03/26 09:55:24;;;;;;;30.30;21.50;;;;;;;8.56;76.31;100475.41;108937;1256;59920;-63
2024/03/26 09:57:51;;;;;;;26.10;20.30;;;;;;;8.56;76.12;100471.40;108724;1256;139473;-62
2024/03/26 10:00:18;;;;;;;24.30;20.20;;;;;;;8.54;76.11;100472.57;108891;1260;65568;-63
2024/03/26 10:02:44;;;;;;;24.90;18.80;;;;;;;8.54;76.21;100470.83;108952;1256;73460;-62
2024/03/26 10:05:16;;;;;;;26.70;19.30;;;;;;;8.59;76.25;100469.20;108775;1257;137984;-62
2024/03/26 10:07:46;;;;;;;26.30;19.60;;;;;;;8.65;76.37;100465.71;108851;1257;60227;-63
2024/03/26 10:10:13;;;;;;;27.10;17.60;;;;;;;8.75;76.47;100463.35;108774;1258;138641;-62
2024/03/26 10:12:41;;;;;;;23.30;16.90;;;;;;;8.78;76.10;100458.90;108921;1257;64079;-62
2024/03/26 10:15:08;;;;;;;26.60;18.90;;;;;;;8.86;76.28;100459.65;108817;1259;73768;-62
2024/03/26 10:17:34;;;;;;;24.60;16.90;;;;;;;8.98;76.35;100455.58;108723;1257;139353;-62
2024/03/26 10:20:02;;;;;;;21.30;16.80;;;;;;;9.09;76.22;100455.53;107507;1257;62090;-62
2024/03/26 10:22:28;;;;;;;23.90;16.10;;;;;;;9.19;76.07;100453.50;104640;1257;139443;-62
2024/03/26 10:24:55;;;;;;;23.50;16.30;;;;;;;9.27;76.00;100452.13;104766;1262;67307;-62
2024/03/26 10:27:22;;;;;;;22.80;16.80;;;;;;;9.36;75.79;100447.27;104884;1256;74141;-62
2024/03/26 10:29:52;;;;;;;24.10;15.80;;;;;;;9.43;75.67;100446.23;104765;1260;138165;-62
2024/03/26 10:32:21;;;;;;;33.20;23.40;;;;;;;9.51;75.54;100442.20;104867;1256;62019;-62
2024/03/26 10:34:56;;;;;;;25.80;18.30;;;;;;;9.60;75.51;100439.09;104634;1256;138838;-62
2024/03/26 10:37:24;;;;;;;26.40;17.90;;;;;;;9.70;75.33;100438.82;109012;1256;66624;-63
2024/03/26 10:39:55;;;;;;;22.10;15.60;;;;;;;9.80;75.34;100439.76;108734;1257;139042;-63
2024/03/26 10:42:24;;;;;;;21.20;15.70;;;;;;;9.94;75.04;100441.13;108814;1256;60078;-63
2024/03/26 10:44:57;;;;;;;19.10;15.60;;;;;;;10.11;74.58;100432.02;108776;1257;61639;-63
2024/03/26 10:47:24;;;;;;;21.80;15.40;;;;;;;10.25;74.50;100430.74;108762;1256;139456;-63
2024/03/26 10:49:51;;;;;;;22.10;15.90;;;;;;;10.45;74.59;100427.33;108888;1262;66380;-63
2024/03/26 10:52:19;;;;;;;18.50;13.70;;;;;;;10.56;73.80;100423.54;108756;1256;138966;-61
2024/03/26 10:54:48;;;;;;;22.90;15.40;;;;;;;10.66;73.65;100423.54;108860;1256;60026;-61
2024/03/26 10:57:15;;;;;;;21.00;15.40;;;;;;;10.85;73.58;100421.61;106052;1260;62067;-63
2024/03/26 10:59:42;;;;;;;20.70;15.80;;;;;;;10.97;73.09;100423.23;108846;1260;139209;-60
2024/03/26 11:02:08;;;;;;;20.50;14.50;;;;;;;11.02;72.77;100421.92;109087;1256;66030;-62